Time;durP1;ratioP1;P1;durP2;ratioP2;P2;SDS_P1;SDS_P2;PMS_P1;PMS_P2;Temp;Humidity;BMP_temperature;BMP_pressure;BME280_temperature;BME280_humidity;BME280_pressure;Samples;Min_cycle;Max_cycle;Signal;HPM_P1;HPM_P2
2022/03/14 00:01:22;;;;;;;3.13;1.63;;;;;;;9.48;66.97;101516.94;10498249;28;20087;-77
2022/03/14 00:06:23;;;;;;;3.40;2.35;;;;;;;9.47;67.11;101530.81;10500237;28;20072;-77
2022/03/14 00:11:25;;;;;;;3.53;1.88;;;;;;;9.48;67.39;101530.94;10464261;28;20029;-77
2022/03/14 00:16:27;;;;;;;4.10;2.05;;;;;;;9.52;67.18;101532.91;10448536;28;20032;-77
2022/03/14 00:21:28;;;;;;;2.63;1.63;;;;;;;9.49;67.14;101542.25;10480566;28;20391;-77
2022/03/14 00:26:28;;;;;;;3.42;1.73;;;;;;;9.50;67.54;101562.38;10498029;28;20128;-77
2022/03/14 00:31:29;;;;;;;3.10;1.65;;;;;;;9.51;67.51;101566.78;10447601;28;20108;-77
2022/03/14 00:36:30;;;;;;;4.45;2.17;;;;;;;9.39;67.58;101559.09;10479759;28;20642;-77
2022/03/14 00:41:30;;;;;;;2.90;1.42;;;;;;;9.39;67.96;101561.69;10463190;28;20132;-77
2022/03/14 00:46:33;;;;;;;4.22;2.45;;;;;;;9.42;67.97;101560.97;10404652;28;20461;-77
2022/03/14 00:51:35;;;;;;;3.83;1.50;;;;;;;9.37;67.93;101577.25;10415678;28;20033;-77
2022/03/14 00:56:36;;;;;;;4.47;2.20;;;;;;;9.38;68.38;101583.41;10414664;28;20027;-77
2022/03/14 01:01:36;;;;;;;3.50;1.92;;;;;;;9.31;68.18;101587.31;10412901;28;20064;-77
2022/03/14 01:06:37;;;;;;;2.78;1.70;;;;;;;9.30;68.51;101587.22;10414011;28;20457;-77
2022/03/14 01:11:43;;;;;;;2.58;1.73;;;;;;;9.25;69.37;101598.28;10413831;28;20037;-77
2022/03/14 01:16:44;;;;;;;3.92;2.10;;;;;;;9.15;69.37;101613.25;10411100;28;20128;-77
2022/03/14 01:21:45;;;;;;;3.25;1.50;;;;;;;9.10;69.94;101616.47;10413905;28;20124;-77
2022/03/14 01:26:46;;;;;;;3.05;1.42;;;;;;;9.09;70.12;101622.47;10414205;28;20041;-77
2022/03/14 01:31:46;;;;;;;5.03;1.63;;;;;;;9.05;70.18;101622.19;10412874;28;20480;-77
2022/03/14 01:36:47;;;;;;;3.47;1.75;;;;;;;9.04;69.96;101628.22;10413313;28;20029;-77
2022/03/14 01:41:47;;;;;;;6.43;3.20;;;;;;;9.05;70.04;101627.41;10413469;28;20033;-77
2022/03/14 01:46:48;;;;;;;3.65;2.30;;;;;;;9.03;71.06;101632.53;10412490;28;20104;-77
2022/03/14 01:51:51;;;;;;;3.00;1.35;;;;;;;8.99;71.12;101637.47;10396251;28;20034;-77
2022/03/14 01:56:51;;;;;;;3.63;1.88;;;;;;;8.93;71.72;101625.81;10411316;28;20021;-77
2022/03/14 02:01:52;;;;;;;4.38;2.17;;;;;;;8.95;71.62;101624.19;10395306;28;20056;-77
2022/03/14 02:06:53;;;;;;;3.25;2.15;;;;;;;8.83;72.14;101631.22;10410724;28;20177;-77
2022/03/14 02:11:56;;;;;;;3.17;1.92;;;;;;;8.76;72.70;101636.81;10411192;28;20485;-77
2022/03/14 02:16:57;;;;;;;6.20;2.33;;;;;;;8.73;72.55;101649.66;10412226;28;20439;-77
2022/03/14 02:21:58;;;;;;;4.38;2.05;;;;;;;8.75;73.74;101650.69;10411922;28;20120;-77
2022/03/14 02:26:58;;;;;;;3.47;1.92;;;;;;;8.69;73.53;101655.47;10399705;28;20527;-77
2022/03/14 02:31:59;;;;;;;4.03;1.95;;;;;;;8.63;73.16;101661.16;10419760;28;20087;-77
2022/03/14 02:37:00;;;;;;;4.72;2.28;;;;;;;8.59;73.81;101669.59;10403186;28;20065;-77
2022/03/14 02:42:01;;;;;;;7.75;2.60;;;;;;;8.56;73.85;101665.09;10419804;28;20029;-77
2022/03/14 02:47:04;;;;;;;8.20;2.90;;;;;;;8.62;74.01;101667.19;10404851;28;20068;-77
2022/03/14 02:52:05;;;;;;;7.13;2.85;;;;;;;8.71;73.12;101660.00;10419931;28;20021;-77
2022/03/14 02:57:06;;;;;;;4.43;2.80;;;;;;;8.82;73.14;101676.41;10419466;28;20040;-77
2022/03/14 03:02:07;;;;;;;4.37;3.37;;;;;;;8.86;72.24;101687.94;10401184;28;20392;-77
2022/03/14 03:07:07;;;;;;;4.78;2.42;;;;;;;8.84;71.98;101698.28;10418385;28;20323;-77
2022/03/14 03:12:12;;;;;;;5.95;2.70;;;;;;;8.82;71.45;101698.16;10418326;28;20476;-77
2022/03/14 03:17:12;;;;;;;2.90;1.92;;;;;;;8.72;70.33;101729.66;10418403;28;20033;-76
2022/03/14 03:22:13;;;;;;;3.72;2.88;;;;;;;8.57;70.91;101741.63;10417039;28;20033;-76
2022/03/14 03:27:13;;;;;;;2.80;1.92;;;;;;;8.49;70.52;101765.50;10401007;28;20481;-77
2022/03/14 03:32:14;;;;;;;2.90;1.70;;;;;;;8.40;70.53;101750.88;10418318;28;20034;-77
2022/03/14 03:37:14;;;;;;;4.18;2.13;;;;;;;8.29;71.83;101773.56;10399860;28;20072;-76
2022/03/14 03:42:15;;;;;;;3.60;2.42;;;;;;;8.23;71.40;101790.59;10417115;28;20069;-76
2022/03/14 03:47:15;;;;;;;4.88;2.45;;;;;;;8.13;72.00;101805.47;10416629;28;20041;-76
2022/03/14 03:52:16;;;;;;;4.47;2.17;;;;;;;8.12;71.96;101809.78;10416065;28;20453;-76
2022/03/14 03:57:16;;;;;;;4.28;2.17;;;;;;;8.02;72.77;101817.72;10416130;28;20112;-76
2022/03/14 04:02:21;;;;;;;5.45;2.95;;;;;;;7.97;72.74;101833.03;10377072;28;20493;-76
2022/03/14 04:07:26;;;;;;;6.50;3.38;;;;;;;7.93;73.23;101846.63;10417591;28;20044;-75
2022/03/14 04:12:27;;;;;;;4.85;2.78;;;;;;;7.90;72.48;101849.91;10415878;28;20029;-76
2022/03/14 04:17:28;;;;;;;6.25;2.63;;;;;;;7.88;73.08;101861.91;10416484;28;20090;-76
2022/03/14 04:22:29;;;;;;;4.90;2.92;;;;;;;7.91;73.47;101869.97;10416630;28;20116;-77
2022/03/14 04:27:29;;;;;;;6.85;4.20;;;;;;;7.90;73.23;101875.97;10414130;28;20033;-76
2022/03/14 04:32:30;;;;;;;6.20;4.30;;;;;;;7.90;73.57;101875.97;10416296;28;20152;-76
2022/03/14 04:37:30;;;;;;;7.22;4.63;;;;;;;7.87;73.54;101877.47;10414232;28;20076;-76
2022/03/14 04:42:32;;;;;;;5.38;3.67;;;;;;;7.81;74.60;101885.72;10412312;28;20065;-76
2022/03/14 04:47:33;;;;;;;5.67;3.03;;;;;;;7.82;73.95;101897.94;10386728;28;20104;-76
2022/03/14 04:52:33;;;;;;;7.78;4.90;;;;;;;7.81;73.95;101903.94;10393337;28;20060;-76
2022/03/14 04:57:34;;;;;;;5.80;3.67;;;;;;;7.79;74.64;101913.34;10414083;28;20021;-76
2022/03/14 05:02:35;;;;;;;7.50;4.90;;;;;;;7.81;74.82;101923.91;10412723;28;20447;-75
2022/03/14 05:07:35;;;;;;;10.13;4.97;;;;;;;7.74;74.54;101925.13;10415485;28;20037;-75
2022/03/14 05:12:36;;;;;;;9.32;5.25;;;;;;;7.62;75.33;101941.63;10414258;28;20440;-76
2022/03/14 05:17:37;;;;;;;9.70;5.65;;;;;;;7.60;75.29;101950.16;10414359;28;20051;-76
2022/03/14 05:22:50;;;;;;;12.38;6.25;;;;;;;7.54;75.66;101962.69;10412089;28;20080;-76
2022/03/14 05:27:52;;;;;;;10.95;7.55;;;;;;;7.53;75.20;101980.00;10407959;28;20044;-75
2022/03/14 05:32:53;;;;;;;10.13;6.82;;;;;;;7.53;75.52;101993.03;10410338;28;20120;-78
2022/03/14 05:37:54;;;;;;;9.30;6.05;;;;;;;7.58;75.69;101994.31;10409706;28;20461;-78
2022/03/14 05:42:55;;;;;;;11.55;5.80;;;;;;;7.60;75.45;101995.34;10398842;28;20064;-77
2022/03/14 05:47:56;;;;;;;9.70;5.78;;;;;;;7.63;75.88;102006.00;10477898;28;20480;-77
2022/03/14 05:52:56;;;;;;;8.73;5.97;;;;;;;7.58;76.25;102009.94;10476330;28;20031;-77
2022/03/14 05:57:58;;;;;;;14.32;6.00;;;;;;;7.59;76.41;102026.50;10477754;28;20383;-77
2022/03/14 06:02:58;;;;;;;17.00;8.30;;;;;;;7.56;76.34;102032.34;10475601;28;20376;-77
2022/03/14 06:07:59;;;;;;;9.27;6.30;;;;;;;7.57;76.49;102035.88;10474951;28;20116;-77
2022/03/14 06:12:59;;;;;;;13.52;7.05;;;;;;;7.60;76.45;102042.22;10474601;28;21330;-77
2022/03/14 06:18:00;;;;;;;13.45;7.50;;;;;;;7.59;77.02;102042.13;10493170;28;20063;-77
2022/03/14 06:23:00;;;;;;;12.50;7.80;;;;;;;7.59;76.37;102056.03;10494268;28;20024;-78
2022/03/14 06:28:01;;;;;;;11.73;7.20;;;;;;;7.59;76.93;102048.22;10442372;28;20028;-77
2022/03/14 06:33:01;;;;;;;12.52;7.70;;;;;;;7.61;77.00;102053.56;10495930;28;20037;-77
2022/03/14 06:38:05;;;;;;;16.00;7.88;;;;;;;7.62;77.19;102063.22;10474564;28;20044;-77
2022/03/14 06:43:06;;;;;;;16.98;7.78;;;;;;;7.66;77.02;102061.75;10476701;28;20052;-78
2022/03/14 06:48:07;;;;;;;16.02;9.02;;;;;;;7.63;77.61;102057.22;10476035;28;20075;-76
2022/03/14 06:53:07;;;;;;;19.58;13.10;;;;;;;7.64;77.43;102074.66;10446308;28;20028;-77
2022/03/14 06:58:08;;;;;;;10.18;6.78;;;;;;;7.71;76.72;102073.44;10473995;28;20523;-77
2022/03/14 07:03:08;;;;;;;13.40;7.95;;;;;;;7.68;77.50;102089.75;10474482;28;20128;-77
2022/03/14 07:08:12;;;;;;;13.00;7.03;;;;;;;7.76;76.55;102088.66;10435761;28;20079;-75
2022/03/14 07:13:12;;;;;;;15.30;6.93;;;;;;;7.81;76.64;102096.81;10439289;28;20115;-77
2022/03/14 07:18:13;;;;;;;10.95;6.10;;;;;;;7.92;76.21;102111.59;10484644;28;20112;-77
2022/03/14 07:23:14;;;;;;;12.63;7.35;;;;;;;7.99;76.14;102115.63;10480818;28;20067;-77
2022/03/14 07:28:14;;;;;;;19.80;12.18;;;;;;;8.16;75.63;102122.13;10482536;28;20114;-75
2022/03/14 07:33:15;;;;;;;23.15;9.52;;;;;;;8.29;75.12;102136.13;10499498;28;20111;-75
2022/03/14 07:38:16;;;;;;;11.27;6.55;;;;;;;8.41;74.10;102134.47;10465582;28;20467;-77
2022/03/14 07:43:17;;;;;;;12.20;6.80;;;;;;;8.53;74.05;102134.53;10498165;28;20086;-76
2022/03/14 07:48:17;;;;;;;13.52;6.65;;;;;;;8.69;73.82;102153.97;10465058;28;20032;-77
2022/03/14 07:53:18;;;;;;;12.02;6.95;;;;;;;8.78;73.04;102159.91;10481937;28;20044;-77
2022/03/14 07:58:18;;;;;;;13.88;6.20;;;;;;;8.98;72.30;102153.53;10464349;28;20032;-76
2022/03/14 08:03:19;;;;;;;11.73;5.43;;;;;;;9.16;70.77;102163.53;10479422;28;20387;-77
2022/03/14 08:08:20;;;;;;;8.82;5.28;;;;;;;9.34;70.19;102171.84;10471659;28;20126;-77
2022/03/14 08:13:20;;;;;;;10.32;7.22;;;;;;;9.32;69.64;102181.28;10475860;28;20457;-77
2022/03/14 08:18:21;;;;;;;12.02;5.43;;;;;;;9.36;69.69;102191.16;10483029;28;20396;-77
2022/03/14 08:23:22;;;;;;;21.48;12.30;;;;;;;9.19;69.44;102205.56;10469865;28;20699;-75
2022/03/14 08:28:23;;;;;;;14.13;8.80;;;;;;;9.26;69.55;102207.84;10467623;28;20067;-77
2022/03/14 08:33:24;;;;;;;10.35;6.95;;;;;;;9.40;68.77;102211.50;10467698;28;20033;-77
2022/03/14 08:38:25;;;;;;;12.53;5.60;;;;;;;9.73;67.04;102208.59;10470285;28;20037;-77
2022/03/14 08:43:25;;;;;;;10.35;5.95;;;;;;;10.01;65.41;102200.13;10474798;28;20563;-77
2022/03/14 08:48:26;;;;;;;41.92;23.25;;;;;;;10.09;65.98;102222.53;10495714;28;20070;-78
2022/03/14 08:53:27;;;;;;;10.57;4.65;;;;;;;10.11;65.97;102226.16;10478766;28;20052;-78
2022/03/14 08:58:29;;;;;;;9.15;5.45;;;;;;;10.38;65.43;102235.06;10479442;28;20048;-78
2022/03/14 09:03:30;;;;;;;10.45;5.30;;;;;;;10.29;65.09;102243.16;10468792;28;20032;-79
2022/03/14 09:08:31;;;;;;;14.85;6.70;;;;;;;10.45;65.91;102249.50;10460400;28;20044;-78
2022/03/14 09:13:32;;;;;;;11.93;5.93;;;;;;;10.41;64.69;102264.09;10492800;28;20023;-78
2022/03/14 09:18:33;;;;;;;7.97;5.45;;;;;;;10.87;63.59;102266.38;10476621;28;20130;-77
2022/03/14 09:23:34;;;;;;;11.40;5.43;;;;;;;10.54;64.73;102260.63;10474538;28;20123;-77
2022/03/14 09:28:36;;;;;;;8.70;5.30;;;;;;;12.09;60.97;102264.78;10448763;28;20097;-77
2022/03/14 09:33:36;;;;;;;;;;;;;;;14.24;51.78;102252.88;10461191;28;20103;-78
2022/03/14 09:38:37;;;;;;;6.47;4.23;;;;;;;16.64;48.93;102268.25;10481596;28;20339;-77
2022/03/14 09:43:39;;;;;;;7.28;4.10;;;;;;;18.40;42.46;102276.41;10476691;28;20390;-77
2022/03/14 09:48:41;;;;;;;7.97;3.75;;;;;;;17.00;44.62;102291.91;10462872;28;20033;-77
2022/03/14 09:53:42;;;;;;;10.10;5.32;;;;;;;14.64;50.00;102300.66;10456129;28;20044;-77
2022/03/14 09:58:45;;;;;;;5.75;4.70;;;;;;;13.71;52.13;102312.19;10445059;28;20052;-77
2022/03/14 10:03:46;;;;;;;6.28;3.42;;;;;;;12.79;55.29;102329.50;10469049;28;20036;-77
2022/03/14 10:08:46;;;;;;;6.25;3.85;;;;;;;12.33;56.29;102335.41;10486757;28;20064;-78
2022/03/14 10:13:50;;;;;;;5.80;3.13;;;;;;;13.75;51.89;102315.94;10481440;28;20103;-77
2022/03/14 10:18:58;;;;;;;6.38;3.33;;;;;;;13.48;52.46;102338.06;10440564;28;20082;-79
2022/03/14 10:24:03;;;;;;;10.98;3.60;;;;;;;13.18;53.51;102351.16;10475808;28;20113;-79
2022/03/14 10:29:07;;;;;;;6.85;3.78;;;;;;;12.74;55.51;102359.84;10460786;28;20032;-79
2022/03/14 10:34:13;;;;;;;8.35;3.88;;;;;;;12.67;55.07;102357.63;10453998;28;20035;-78
2022/03/14 10:39:30;;;;;;;8.27;3.78;;;;;;;12.71;55.22;102363.19;10443601;28;20041;-77
2022/03/14 10:44:31;;;;;;;7.70;4.72;;;;;;;12.44;55.36;102358.00;10433674;28;20103;-78
2022/03/14 10:49:35;;;;;;;7.72;5.15;;;;;;;12.20;56.32;102370.44;10458409;28;20039;-77
2022/03/14 10:54:42;;;;;;;7.03;3.60;;;;;;;12.20;56.08;102373.06;10497933;28;20031;-77
2022/03/14 10:59:50;;;;;;;7.47;3.97;;;;;;;12.02;57.09;102381.56;10484379;28;20140;-78
2022/03/14 11:04:57;;;;;;;9.25;3.88;;;;;;;11.68;58.51;102386.25;10467808;28;20021;-77
2022/03/14 11:10:00;;;;;;;7.93;5.32;;;;;;;11.48;59.27;102398.00;10439899;28;20063;-77
2022/03/14 11:15:11;;;;;;;6.90;4.10;;;;;;;11.19;59.72;102407.38;10472849;28;20054;-77
2022/03/14 11:20:12;;;;;;;10.52;4.22;;;;;;;10.98;60.31;102408.59;10474599;28;20037;-77
2022/03/14 11:25:19;;;;;;;15.05;4.68;;;;;;;10.75;61.00;102391.25;10446391;28;20028;-77
2022/03/14 11:30:19;;;;;;;11.27;6.20;;;;;;;10.53;61.79;102408.03;10457972;28;20556;-77
2022/03/14 11:35:25;;;;;;;9.73;4.57;;;;;;;10.54;62.47;102409.84;10481919;28;20116;-76
2022/03/14 11:40:29;;;;;;;9.13;5.43;;;;;;;10.74;62.33;102410.38;10432621;28;20443;-78
2022/03/14 11:45:30;;;;;;;10.07;4.80;;;;;;;11.02;61.41;102414.94;10448183;28;20044;-77
2022/03/14 11:50:43;;;;;;;8.63;5.10;;;;;;;11.19;60.52;102416.16;10462811;28;20412;-77
2022/03/14 11:55:52;;;;;;;7.00;4.93;;;;;;;11.27;60.62;102421.91;10444713;28;20102;-77
2022/03/14 12:00:52;;;;;;;8.27;5.70;;;;;;;11.20;61.79;102438.94;10454220;28;20025;-78
2022/03/14 12:05:53;;;;;;;8.10;5.80;;;;;;;11.14;61.05;102434.16;10455923;28;20068;-78
2022/03/14 12:10:55;;;;;;;12.32;8.00;;;;;;;11.12;61.23;102433.16;10438316;28;20052;-77
2022/03/14 12:15:55;;;;;;;12.43;6.10;;;;;;;11.21;61.08;102429.34;10455846;28;20366;-76
2022/03/14 12:21:04;;;;;;;9.82;4.85;;;;;;;11.41;60.49;102443.88;10443910;28;20116;-77
2022/03/14 12:26:23;;;;;;;9.80;4.78;;;;;;;11.43;59.68;102435.28;10449339;28;20036;-78
2022/03/14 12:31:24;;;;;;;8.55;3.83;;;;;;;11.56;59.34;102434.44;10446361;28;20484;-78
2022/03/14 12:36:25;;;;;;;7.38;3.65;;;;;;;11.75;58.54;102438.31;10465220;28;20066;-78
2022/03/14 12:41:26;;;;;;;7.50;3.63;;;;;;;11.68;58.77;102436.97;10461505;28;20123;-78
2022/03/14 12:46:27;;;;;;;10.90;3.75;;;;;;;11.22;60.20;102449.50;10440788;28;20032;-77
2022/03/14 12:51:29;;;;;;;8.38;4.05;;;;;;;10.86;61.92;102458.41;10465009;28;20043;-79
2022/03/14 12:56:29;;;;;;;10.38;4.80;;;;;;;10.56;63.65;102455.38;10450333;28;20052;-78
2022/03/14 13:01:31;;;;;;;7.57;3.78;;;;;;;10.41;66.47;102452.56;10445125;28;20111;-78
2022/03/14 13:06:41;;;;;;;11.68;4.93;;;;;;;10.47;66.68;102457.31;10481466;28;20404;-77
2022/03/14 13:11:42;;;;;;;13.43;4.63;;;;;;;10.75;65.11;102456.72;10474523;28;20115;-78
2022/03/14 13:16:43;;;;;;;9.95;5.50;;;;;;;11.24;62.65;102466.25;10436425;28;20365;-78
2022/03/14 13:21:43;;;;;;;9.73;4.43;;;;;;;11.36;62.46;102468.84;10472628;28;20068;-78
2022/03/14 13:26:48;;;;;;;14.25;5.07;;;;;;;11.23;62.61;102467.06;10450647;28;20379;-78
2022/03/14 13:31:49;;;;;;;12.43;5.22;;;;;;;11.21;63.13;102463.41;10439759;28;20115;-78
2022/03/14 13:36:52;;;;;;;13.82;5.13;;;;;;;11.10;63.13;102471.44;10462074;28;20377;-78
2022/03/14 13:41:55;;;;;;;13.30;4.00;;;;;;;11.31;62.76;102469.44;10462895;28;20384;-79
2022/03/14 13:46:57;;;;;;;7.97;3.90;;;;;;;11.67;60.89;102469.25;10478792;28;20631;-78
2022/03/14 13:52:06;;;;;;;14.25;4.35;;;;;;;12.07;60.25;102470.16;10472376;28;20036;-78
2022/03/14 13:57:12;;;;;;;7.18;3.60;;;;;;;12.76;57.18;102461.59;10474093;28;20184;-78
2022/03/14 14:02:15;;;;;;;13.68;6.03;;;;;;;15.01;52.76;102450.28;10456782;28;20162;-78
2022/03/14 14:07:25;;;;;;;13.45;3.72;;;;;;;16.50;47.21;102443.78;10462678;28;20131;-78
2022/03/14 14:12:26;;;;;;;10.80;3.15;;;;;;;15.89;47.64;102456.69;10471756;28;20133;-78
2022/03/14 14:17:37;;;;;;;7.17;3.70;;;;;;;14.53;49.18;102460.75;10476360;28;20468;-79
2022/03/14 14:22:58;;;;;;;5.93;2.75;;;;;;;14.32;50.50;102466.63;10474657;28;20039;-79
2022/03/14 14:28:04;;;;;;;7.35;3.22;;;;;;;14.74;50.07;102465.47;10469344;28;20041;-78
2022/03/14 14:33:30;;;;;;;7.57;3.65;;;;;;;17.35;44.67;102465.38;10480118;28;20073;-78
2022/03/14 14:38:37;;;;;;;14.80;4.97;;;;;;;18.34;42.05;102448.44;10468526;28;20033;-78
2022/03/14 14:43:38;;;;;;;16.48;4.43;;;;;;;18.73;41.20;102447.34;10456088;28;20082;-78
2022/03/14 14:48:38;;;;;;;9.20;3.00;;;;;;;19.11;39.72;102447.03;10469281;28;20045;-79
2022/03/14 14:53:41;;;;;;;8.88;3.60;;;;;;;19.14;39.98;102432.13;10447553;28;20044;-79
2022/03/14 14:58:42;;;;;;;11.40;4.35;;;;;;;18.78;40.15;102425.44;10441110;28;20041;-78
2022/03/14 15:03:45;;;;;;;9.13;3.80;;;;;;;18.90;40.81;102419.72;10459445;28;20049;-78
2022/03/14 15:08:48;;;;;;;7.05;3.10;;;;;;;19.69;38.58;102420.78;10457472;28;20043;-79
2022/03/14 15:13:49;;;;;;;8.98;3.63;;;;;;;18.90;39.40;102425.03;10433570;28;20617;-78
2022/03/14 15:18:54;;;;;;;10.32;3.33;;;;;;;18.57;39.33;102427.25;10449376;28;20052;-79
2022/03/14 15:23:55;;;;;;;9.25;4.05;;;;;;;18.29;38.93;102434.09;10438395;28;20021;-79
2022/03/14 15:28:55;;;;;;;8.95;4.13;;;;;;;18.44;39.44;102429.41;10456269;28;20037;-78
2022/03/14 15:33:56;;;;;;;10.63;5.15;;;;;;;17.67;40.84;102434.13;10440210;28;20029;-78
2022/03/14 15:38:57;;;;;;;7.50;3.60;;;;;;;16.87;41.51;102437.59;10457236;28;20052;-78
2022/03/14 15:43:57;;;;;;;6.55;3.45;;;;;;;15.07;46.10;102447.06;10459364;28;20033;-79
2022/03/14 15:48:58;;;;;;;6.50;3.53;;;;;;;14.82;46.42;102451.91;10482982;28;20477;-78
2022/03/14 15:53:58;;;;;;;8.75;4.38;;;;;;;13.97;48.68;102459.31;10477908;28;20060;-79
2022/03/14 15:58:59;;;;;;;9.70;4.20;;;;;;;13.40;50.45;102464.63;10455891;28;20057;-78
2022/03/14 16:03:59;;;;;;;8.20;3.83;;;;;;;12.82;53.11;102482.09;10459600;28;20081;-78
2022/03/14 16:09:01;;;;;;;9.77;4.28;;;;;;;12.84;52.33;102490.97;10447120;28;20496;-78
2022/03/14 16:14:04;;;;;;;9.23;4.88;;;;;;;12.71;53.31;102502.44;10458480;28;20105;-78
2022/03/14 16:19:09;;;;;;;9.95;4.07;;;;;;;12.50;53.28;102512.41;10438546;28;20071;-78
2022/03/14 16:24:09;;;;;;;7.20;4.05;;;;;;;11.97;53.97;102514.13;10460093;28;20024;-77
2022/03/14 16:29:10;;;;;;;14.25;3.67;;;;;;;11.55;55.65;102515.59;10472372;28;20425;-77
2022/03/14 16:34:11;;;;;;;10.60;4.43;;;;;;;11.33;56.69;102519.31;10460930;28;20060;-77
2022/03/14 16:39:11;;;;;;;5.97;4.05;;;;;;;11.12;56.92;102521.34;10462606;28;20060;-77
2022/03/14 16:44:12;;;;;;;5.95;3.78;;;;;;;11.09;57.91;102523.75;10438075;28;20124;-77
2022/03/14 16:49:13;;;;;;;6.85;4.18;;;;;;;11.01;57.29;102538.88;10455925;28;20392;-76
2022/03/14 16:54:14;;;;;;;9.95;4.28;;;;;;;10.86;59.04;102551.78;10461086;28;20067;-77
2022/03/14 16:59:15;;;;;;;8.05;4.57;;;;;;;10.70;58.40;102552.34;10461636;28;20066;-77
2022/03/14 17:04:16;;;;;;;9.32;4.78;;;;;;;10.52;59.44;102550.19;10467420;28;20132;-77
2022/03/14 17:09:17;;;;;;;5.50;3.03;;;;;;;10.36;59.34;102558.56;10443429;28;20033;-77
2022/03/14 17:14:17;;;;;;;9.25;3.58;;;;;;;10.12;60.49;102555.00;10464984;28;20052;-78
2022/03/14 17:19:18;;;;;;;7.70;3.40;;;;;;;9.87;60.75;102546.97;10486940;28;20039;-77
2022/03/14 17:24:18;;;;;;;12.38;5.90;;;;;;;9.65;61.57;102561.00;10470398;28;20075;-77
2022/03/14 17:29:19;;;;;;;10.90;5.72;;;;;;;9.43;62.47;102560.97;10466311;28;20031;-77
2022/03/14 17:34:19;;;;;;;20.55;5.47;;;;;;;9.03;63.52;102556.09;10456306;28;20028;-77
2022/03/14 17:39:20;;;;;;;12.65;3.40;;;;;;;8.47;63.76;102570.69;10473433;28;20498;-77
2022/03/14 17:44:21;;;;;;;9.55;4.28;;;;;;;8.13;65.78;102569.56;10435074;28;20515;-77
2022/03/14 17:49:21;;;;;;;7.57;3.13;;;;;;;7.69;67.10;102578.91;10469910;28;20036;-77
2022/03/14 17:54:22;;;;;;;18.13;7.88;;;;;;;7.29;68.09;102591.03;10464284;28;20111;-76
2022/03/14 17:59:22;;;;;;;14.18;5.30;;;;;;;7.01;69.71;102606.81;10478291;28;20422;-76
2022/03/14 18:04:24;;;;;;;10.75;4.93;;;;;;;6.81;71.14;102616.31;10468008;28;20035;-75
2022/03/14 18:09:24;;;;;;;10.77;4.90;;;;;;;6.60;71.71;102617.88;10428412;28;20032;-77
2022/03/14 18:14:25;;;;;;;10.55;5.15;;;;;;;6.46;71.23;102633.13;10461794;28;20380;-76
2022/03/14 18:19:26;;;;;;;5.82;3.35;;;;;;;6.14;72.39;102636.22;10458601;28;20365;-76
2022/03/14 18:24:26;;;;;;;7.95;4.65;;;;;;;5.86;73.32;102628.38;10453190;28;20111;-77
2022/03/14 18:29:27;;;;;;;11.18;5.03;;;;;;;5.99;74.85;102629.53;10450990;28;20057;-77
2022/03/14 18:34:33;;;;;;;8.30;5.07;;;;;;;5.87;74.66;102614.63;10447470;28;20036;-77
2022/03/14 18:39:34;;;;;;;7.88;4.25;;;;;;;5.87;74.57;102612.03;10485877;28;20043;-78
2022/03/14 18:44:35;;;;;;;9.57;4.50;;;;;;;5.69;75.10;102610.28;10457178;28;20076;-77
2022/03/14 18:49:36;;;;;;;7.65;3.88;;;;;;;5.49;75.77;102611.88;10456160;28;20051;-78
2022/03/14 18:54:39;;;;;;;7.17;4.20;;;;;;;5.47;76.16;102621.19;10431025;28;20107;-78
2022/03/14 18:59:39;;;;;;;6.40;4.35;;;;;;;5.41;76.46;102612.81;10459452;28;20016;-77
2022/03/14 19:04:40;;;;;;;13.70;6.22;;;;;;;5.45;76.25;102612.34;10469538;28;20427;-78
2022/03/14 19:09:41;;;;;;;11.07;4.63;;;;;;;5.29;76.16;102623.84;10438439;28;20094;-77
2022/03/14 19:14:41;;;;;;;16.73;6.55;;;;;;;5.19;77.51;102626.31;10484094;28;20543;-78
2022/03/14 19:19:45;;;;;;;17.40;4.80;;;;;;;5.26;77.16;102628.75;10448653;28;20052;-77
2022/03/14 19:24:45;;;;;;;13.18;7.60;;;;;;;5.18;77.50;102627.06;10466221;28;20028;-77
2022/03/14 19:29:47;;;;;;;14.02;5.10;;;;;;;5.16;77.41;102644.19;10465714;28;20109;-77
2022/03/14 19:34:47;;;;;;;11.00;4.60;;;;;;;5.02;77.72;102644.50;10483603;28;20035;-77
2022/03/14 19:39:48;;;;;;;9.43;5.63;;;;;;;4.83;78.55;102645.28;10495299;28;20048;-77
2022/03/14 19:44:51;;;;;;;7.00;3.95;;;;;;;4.63;78.88;102648.50;10485277;28;20049;-77
2022/03/14 19:49:52;;;;;;;8.60;5.63;;;;;;;4.50;79.75;102647.25;10475232;28;20052;-77
2022/03/14 19:54:53;;;;;;;8.88;5.65;;;;;;;4.50;79.88;102649.84;10481741;28;20024;-77
2022/03/14 19:59:53;;;;;;;11.82;4.97;;;;;;;4.30;80.10;102647.81;10483498;28;20495;-77
2022/03/14 20:04:54;;;;;;;8.15;4.63;;;;;;;4.07;80.82;102658.44;10482401;28;20074;-77
2022/03/14 20:09:54;;;;;;;14.50;5.25;;;;;;;3.88;81.34;102668.56;10500250;28;20115;-77
2022/03/14 20:14:55;;;;;;;15.18;6.38;;;;;;;3.73;81.67;102665.31;10482505;28;20432;-77
2022/03/14 20:19:56;;;;;;;13.48;6.35;;;;;;;3.65;81.80;102667.09;10480930;28;20158;-77
2022/03/14 20:24:56;;;;;;;11.00;6.20;;;;;;;3.57;82.76;102661.13;10499746;28;20090;-77
2022/03/14 20:29:57;;;;;;;12.20;6.07;;;;;;;3.51;83.20;102663.06;10499766;28;20173;-77
2022/03/14 20:34:58;;;;;;;14.23;7.88;;;;;;;3.42;83.32;102665.59;10499257;28;20036;-77
2022/03/14 20:39:59;;;;;;;11.73;5.97;;;;;;;3.31;83.57;102663.53;10481784;28;20028;-77
2022/03/14 20:45:02;;;;;;;13.07;7.15;;;;;;;3.20;83.81;102663.31;10480085;28;20043;-75
2022/03/14 20:50:03;;;;;;;15.55;6.25;;;;;;;3.18;84.19;102669.09;10465691;28;20109;-77
2022/03/14 20:55:03;;;;;;;9.95;6.97;;;;;;;3.25;84.44;102666.41;10481449;28;20098;-77
2022/03/14 21:00:08;;;;;;;12.07;6.85;;;;;;;3.19;84.62;102664.06;10453254;28;20131;-76
2022/03/14 21:05:10;;;;;;;10.77;6.90;;;;;;;3.14;84.66;102662.66;10463011;28;20044;-77
2022/03/14 21:10:10;;;;;;;15.07;10.13;;;;;;;3.07;85.21;102671.47;10463234;28;20127;-77
2022/03/14 21:15:20;;;;;;;20.15;10.20;;;;;;;3.02;85.01;102670.03;10479586;28;20111;-77
2022/03/14 21:20:21;;;;;;;14.23;8.35;;;;;;;2.94;85.74;102679.56;10478102;28;20028;-77
2022/03/14 21:25:23;;;;;;;16.53;10.00;;;;;;;2.92;85.93;102687.91;10462337;28;20557;-77
2022/03/14 21:30:24;;;;;;;19.67;10.38;;;;;;;2.92;86.63;102688.81;10478273;28;20047;-77
2022/03/14 21:35:24;;;;;;;20.38;12.65;;;;;;;2.96;86.79;102695.25;10479837;28;20028;-77
2022/03/14 21:40:25;;;;;;;32.15;14.80;;;;;;;2.90;86.39;102690.31;10461600;28;20509;-77
2022/03/14 21:45:27;;;;;;;21.60;11.95;;;;;;;3.06;86.35;102676.44;10460907;28;20059;-77
2022/03/14 21:50:30;;;;;;;18.65;12.15;;;;;;;2.91;86.56;102671.47;10479027;28;20036;-77
2022/03/14 21:55:32;;;;;;;15.02;10.32;;;;;;;2.80;86.55;102669.38;10478257;28;20032;-77
2022/03/14 22:00:33;;;;;;;22.10;14.55;;;;;;;2.97;87.07;102675.47;10479057;28;20040;-77
2022/03/14 22:05:33;;;;;;;27.33;13.88;;;;;;;3.03;87.33;102673.53;10460946;28;20391;-77
2022/03/14 22:10:34;;;;;;;26.90;13.40;;;;;;;3.12;87.13;102676.19;10495596;28;20059;-77
2022/03/14 22:15:35;;;;;;;25.83;15.07;;;;;;;3.17;86.67;102677.63;10476826;28;20484;-77
2022/03/14 22:20:36;;;;;;;25.13;16.75;;;;;;;3.20;86.26;102667.59;10476935;28;20035;-77
2022/03/14 22:25:37;;;;;;;27.98;15.52;;;;;;;3.22;86.39;102671.25;10445048;28;20032;-77
2022/03/14 22:30:38;;;;;;;42.80;19.33;;;;;;;3.23;86.46;102658.47;10476942;28;20510;-77
2022/03/14 22:35:39;;;;;;;23.80;14.30;;;;;;;3.21;86.28;102659.06;10460500;28;20099;-77
2022/03/14 22:40:40;;;;;;;33.20;19.77;;;;;;;3.21;86.61;102656.50;10495186;28;20501;-77
2022/03/14 22:45:43;;;;;;;25.83;16.83;;;;;;;3.27;85.99;102653.63;10484713;28;20044;-77
2022/03/14 22:50:46;;;;;;;23.25;13.38;;;;;;;3.10;84.70;102660.50;10502892;28;20051;-77
2022/03/14 22:55:47;;;;;;;27.27;12.43;;;;;;;2.97;85.21;102659.94;10486880;28;20036;-77
2022/03/14 23:00:49;;;;;;;21.85;13.32;;;;;;;2.79;85.13;102667.56;10502713;28;20423;-76
2022/03/14 23:05:53;;;;;;;23.30;13.47;;;;;;;2.68;85.93;102673.22;10485255;28;20432;-77